sensor_id;sensor_type;location;lat;lon;timestamp;pressure;altitude;pressure_sealevel;temperature;humidity
9141;BME280;46330;50.822;7.126;2023-05-02T00:02:26;101192.94;;;10.32;100.00
9141;BME280;46330;50.822;7.126;2023-05-02T00:04:56;101190.31;;;10.35;100.00
9141;BME280;46330;50.822;7.126;2023-05-02T00:07:24;101182.47;;;10.37;100.00
9141;BME280;46330;50.822;7.126;2023-05-02T00:09:52;101174.56;;;10.41;100.00
9141;BME280;46330;50.822;7.126;2023-05-02T00:12:20;101178.00;;;10.43;100.00
9141;BME280;46330;50.822;7.126;2023-05-02T00:14:48;101178.00;;;10.43;100.00
9141;BME280;46330;50.822;7.126;2023-05-02T00:17:16;101177.16;;;10.44;100.00
9141;BME280;46330;50.822;7.126;2023-05-02T00:19:45;101177.97;;;10.46;100.00
9141;BME280;46330;50.822;7.126;2023-05-02T00:22:14;101183.22;;;10.46;100.00
9141;BME280;46330;50.822;7.126;2023-05-02T00:24:42;101178.91;;;10.42;100.00
9141;BME280;46330;50.822;7.126;2023-05-02T00:27:10;101181.47;;;10.47;100.00
9141;BME280;46330;50.822;7.126;2023-05-02T00:29:38;101178.84;;;10.48;100.00
9141;BME280;46330;50.822;7.126;2023-05-02T00:32:06;101181.44;;;10.50;100.00
9141;BME280;46330;50.822;7.126;2023-05-02T00:34:34;101186.66;;;10.51;100.00
9141;BME280;46330;50.822;7.126;2023-05-02T00:37:02;101193.72;;;10.45;100.00
9141;BME280;46330;50.822;7.126;2023-05-02T00:39:32;101186.81;;;10.36;100.00
9141;BME280;46330;50.822;7.126;2023-05-02T00:42:01;101203.41;;;10.34;100.00
9141;BME280;46330;50.822;7.126;2023-05-02T00:44:29;101192.13;;;10.25;100.00
9141;BME280;46330;50.822;7.126;2023-05-02T00:46:57;101195.66;;;10.21;100.00
9141;BME280;46330;50.822;7.126;2023-05-02T00:49:25;101195.75;;;10.14;100.00
9141;BME280;46330;50.822;7.126;2023-05-02T00:51:53;101205.31;;;10.10;100.00
9141;BME280;46330;50.822;7.126;2023-05-02T00:54:21;101206.16;;;10.12;100.00
9141;BME280;46330;50.822;7.126;2023-05-02T00:56:50;101199.22;;;10.14;100.00
9141;BME280;46330;50.822;7.126;2023-05-02T00:59:19;101201.81;;;10.17;100.00
9141;BME280;46330;50.822;7.126;2023-05-02T01:01:55;101204.44;;;10.17;100.00
9141;BME280;46330;50.822;7.126;2023-05-02T01:04:33;101202.69;;;10.16;100.00
9141;BME280;46330;50.822;7.126;2023-05-02T01:07:16;101207.94;;;10.09;100.00
9141;BME280;46330;50.822;7.126;2023-05-02T01:09:53;101211.44;;;10.08;100.00
9141;BME280;46330;50.822;7.126;2023-05-02T01:12:28;101221.00;;;10.10;100.00
9141;BME280;46330;50.822;7.126;2023-05-02T01:14:58;101218.41;;;10.13;100.00
9141;BME280;46330;50.822;7.126;2023-05-02T01:17:30;101225.38;;;10.14;100.00
9141;BME280;46330;50.822;7.126;2023-05-02T01:20:04;101231.47;;;10.13;100.00
9141;BME280;46330;50.822;7.126;2023-05-02T01:22:33;101234.03;;;10.15;100.00
9141;BME280;46330;50.822;7.126;2023-05-02T01:25:18;101237.56;;;10.14;100.00
9141;BME280;46330;50.822;7.126;2023-05-02T01:27:56;101237.50;;;10.20;100.00
9141;BME280;46330;50.822;7.126;2023-05-02T01:30:31;101243.63;;;10.20;100.00
9141;BME280;46330;50.822;7.126;2023-05-02T01:33:01;101240.09;;;10.21;100.00
9141;BME280;46330;50.822;7.126;2023-05-02T01:35:31;101245.31;;;10.23;100.00
9141;BME280;46330;50.822;7.126;2023-05-02T01:38:01;101249.69;;;10.24;100.00
9141;BME280;46330;50.822;7.126;2023-05-02T01:40:30;101251.41;;;10.25;100.00
9141;BME280;46330;50.822;7.126;2023-05-02T01:43:00;101251.41;;;10.25;100.00
9141;BME280;46330;50.822;7.126;2023-05-02T01:45:33;101249.69;;;10.24;100.00
9141;BME280;46330;50.822;7.126;2023-05-02T01:48:04;101250.59;;;10.12;100.00
9141;BME280;46330;50.822;7.126;2023-05-02T01:50:33;101258.44;;;10.12;100.00
9141;BME280;46330;50.822;7.126;2023-05-02T01:53:03;101269.78;;;10.11;100.00
9141;BME280;46330;50.822;7.126;2023-05-02T01:55:32;101266.28;;;10.15;100.00
9141;BME280;46330;50.822;7.126;2023-05-02T01:58:03;101276.78;;;10.14;100.00
9141;BME280;46330;50.822;7.126;2023-05-02T02:00:35;101268.91;;;10.15;100.00
9141;BME280;46330;50.822;7.126;2023-05-02T02:03:05;101277.66;;;10.14;100.00
9141;BME280;46330;50.822;7.126;2023-05-02T02:05:34;101275.03;;;10.14;100.00
9141;BME280;46330;50.822;7.126;2023-05-02T02:08:04;101282.88;;;10.11;100.00
9141;BME280;46330;50.822;7.126;2023-05-02T02:10:38;101274.16;;;10.08;100.00
9141;BME280;46330;50.822;7.126;2023-05-02T02:13:13;101282.00;;;10.06;100.00
9141;BME280;46330;50.822;7.126;2023-05-02T02:15:46;101286.38;;;10.03;100.00
9141;BME280;46330;50.822;7.126;2023-05-02T02:18:19;101286.44;;;9.95;100.00
9141;BME280;46330;50.822;7.126;2023-05-02T02:20:49;101293.44;;;9.90;100.00
9141;BME280;46330;50.822;7.126;2023-05-02T02:23:22;101298.63;;;9.96;100.00
9141;BME280;46330;50.822;7.126;2023-05-02T02:25:53;101297.84;;;9.87;100.00
9141;BME280;46330;50.822;7.126;2023-05-02T02:28:22;101297.81;;;9.88;100.00
9141;BME280;46330;50.822;7.126;2023-05-02T02:30:51;101303.06;;;9.85;100.00
9141;BME280;46330;50.822;7.126;2023-05-02T02:33:21;101305.66;;;9.88;100.00
9141;BME280;46330;50.822;7.126;2023-05-02T02:35:57;101311.75;;;9.89;100.00
9141;BME280;46330;50.822;7.126;2023-05-02T02:38:33;101306.47;;;9.93;100.00
9141;BME280;46330;50.822;7.126;2023-05-02T02:41:11;101309.06;;;9.96;100.00
9141;BME280;46330;50.822;7.126;2023-05-02T02:43:46;101312.56;;;9.98;100.00
9141;BME280;46330;50.822;7.126;2023-05-02T02:46:27;101309.97;;;9.95;100.00
9141;BME280;46330;50.822;7.126;2023-05-02T02:49:09;101325.66;;;9.95;100.00
9141;BME280;46330;50.822;7.126;2023-05-02T02:51:44;101329.13;;;9.96;100.00
9141;BME280;46330;50.822;7.126;2023-05-02T02:54:17;101330.81;;;10.00;100.00
9141;BME280;46330;50.822;7.126;2023-05-02T02:56:58;101330.84;;;9.97;100.00
9141;BME280;46330;50.822;7.126;2023-05-02T02:59:30;101336.09;;;9.98;100.00
9141;BME280;46330;50.822;7.126;2023-05-02T03:02:04;101331.75;;;9.94;100.00
9141;BME280;46330;50.822;7.126;2023-05-02T03:04:37;101332.63;;;9.90;100.00
9141;BME280;46330;50.822;7.126;2023-05-02T03:07:05;101343.03;;;9.96;100.00
9141;BME280;46330;50.822;7.126;2023-05-02T03:09:40;101354.38;;;9.95;100.00
9141;BME280;46330;50.822;7.126;2023-05-02T03:12:12;101350.06;;;9.93;100.00
9141;BME280;46330;50.822;7.126;2023-05-02T03:14:41;101350.91;;;9.92;100.00
9141;BME280;46330;50.822;7.126;2023-05-02T03:17:11;101351.78;;;9.92;100.00
9141;BME280;46330;50.822;7.126;2023-05-02T03:19:40;101350.91;;;9.92;100.00
9141;BME280;46330;50.822;7.126;2023-05-02T03:22:09;101346.56;;;9.91;100.00
9141;BME280;46330;50.822;7.126;2023-05-02T03:24:37;101353.53;;;9.87;100.00
9141;BME280;46330;50.822;7.126;2023-05-02T03:27:05;101360.50;;;9.88;100.00
9141;BME280;46330;50.822;7.126;2023-05-02T03:29:39;101358.78;;;9.87;100.00
9141;BME280;46330;50.822;7.126;2023-05-02T03:32:08;101356.13;;;9.90;100.00
9141;BME280;46330;50.822;7.126;2023-05-02T03:34:40;101353.53;;;9.90;100.00
9141;BME280;46330;50.822;7.126;2023-05-02T03:37:09;101358.72;;;9.98;100.00
9141;BME280;46330;50.822;7.126;2023-05-02T03:39:37;101363.09;;;9.96;100.00
9141;BME280;46330;50.822;7.126;2023-05-02T03:42:04;101362.22;;;9.97;100.00
9141;BME280;46330;50.822;7.126;2023-05-02T03:44:32;101362.25;;;9.92;100.00
9141;BME280;46330;50.822;7.126;2023-05-02T03:47:00;101358.75;;;9.99;100.00
9141;BME280;46330;50.822;7.126;2023-05-02T03:49:34;101361.31;;;10.01;100.00
9141;BME280;46330;50.822;7.126;2023-05-02T03:52:05;101367.44;;;9.98;100.00
9141;BME280;46330;50.822;7.126;2023-05-02T03:54:34;101367.44;;;9.98;100.00
9141;BME280;46330;50.822;7.126;2023-05-02T03:57:03;101363.94;;;10.02;100.00
9141;BME280;46330;50.822;7.126;2023-05-02T03:59:32;101364.78;;;10.04;100.00
9141;BME280;46330;50.822;7.126;2023-05-02T04:02:08;101363.91;;;10.04;100.00
9141;BME280;46330;50.822;7.126;2023-05-02T04:04:41;101370.88;;;10.06;100.00
9141;BME280;46330;50.822;7.126;2023-05-02T04:07:13;101369.13;;;10.11;100.00
9141;BME280;46330;50.822;7.126;2023-05-02T04:09:48;101370.88;;;10.06;100.00
9141;BME280;46330;50.822;7.126;2023-05-02T04:12:16;101373.47;;;10.06;100.00
9141;BME280;46330;50.822;7.126;2023-05-02T04:14:47;101378.72;;;10.06;100.00
9141;BME280;46330;50.822;7.126;2023-05-02T04:17:15;101376.13;;;10.05;100.00
9141;BME280;46330;50.822;7.126;2023-05-02T04:20:12;101374.38;;;10.05;100.00
9141;BME280;46330;50.822;7.126;2023-05-02T04:22:46;101381.34;;;10.03;100.00
9141;BME280;46330;50.822;7.126;2023-05-02T04:25:16;101380.47;;;10.07;100.00
9141;BME280;46330;50.822;7.126;2023-05-02T04:27:44;101389.16;;;10.08;100.00
9141;BME280;46330;50.822;7.126;2023-05-02T04:30:16;101392.66;;;10.11;100.00
9141;BME280;46330;50.822;7.126;2023-05-02T04:32:52;101393.50;;;10.09;100.00
9141;BME280;46330;50.822;7.126;2023-05-02T04:35:21;101399.63;;;10.11;100.00
9141;BME280;46330;50.822;7.126;2023-05-02T04:37:51;101403.09;;;10.10;100.00
9141;BME280;46330;50.822;7.126;2023-05-02T04:40:19;101403.09;;;10.11;100.00
9141;BME280;46330;50.822;7.126;2023-05-02T04:42:52;101410.03;;;10.18;100.00
9141;BME280;46330;50.822;7.126;2023-05-02T04:45:24;101417.06;;;10.13;100.00
9141;BME280;46330;50.822;7.126;2023-05-02T04:47:52;101418.78;;;10.17;100.00
9141;BME280;46330;50.822;7.126;2023-05-02T04:50:21;101417.91;;;10.17;100.00
9141;BME280;46330;50.822;7.126;2023-05-02T04:52:49;101426.63;;;10.20;100.00
9141;BME280;46330;50.822;7.126;2023-05-02T04:55:18;101429.25;;;10.17;100.00
9141;BME280;46330;50.822;7.126;2023-05-02T04:57:46;101431.81;;;10.13;100.00
9141;BME280;46330;50.822;7.126;2023-05-02T05:00:17;101440.56;;;10.18;100.00
9141;BME280;46330;50.822;7.126;2023-05-02T05:02:45;101431.84;;;10.17;100.00
9141;BME280;46330;50.822;7.126;2023-05-02T05:05:14;101436.22;;;10.17;100.00
9141;BME280;46330;50.822;7.126;2023-05-02T05:07:43;101448.38;;;10.19;100.00
9141;BME280;46330;50.822;7.126;2023-05-02T05:10:12;101446.66;;;10.17;100.00
9141;BME280;46330;50.822;7.126;2023-05-02T05:12:46;101446.63;;;10.18;100.00
9141;BME280;46330;50.822;7.126;2023-05-02T05:15:15;101453.66;;;10.13;100.00
9141;BME280;46330;50.822;7.126;2023-05-02T05:17:49;101452.72;;;10.22;100.00
9141;BME280;46330;50.822;7.126;2023-05-02T05:20:17;101456.25;;;10.18;100.00
9141;BME280;46330;50.822;7.126;2023-05-02T05:22:46;101457.97;;;10.22;100.00
9141;BME280;46330;50.822;7.126;2023-05-02T05:25:15;101451.81;;;10.31;100.00
9141;BME280;46330;50.822;7.126;2023-05-02T05:27:46;101457.06;;;10.34;100.00
9141;BME280;46330;50.822;7.126;2023-05-02T05:30:15;101458.78;;;10.33;100.00
9141;BME280;46330;50.822;7.126;2023-05-02T05:32:42;101457.91;;;10.33;100.00
9141;BME280;46330;50.822;7.126;2023-05-02T05:35:11;101464.06;;;10.27;100.00
9141;BME280;46330;50.822;7.126;2023-05-02T05:37:39;101481.41;;;10.40;100.00
9141;BME280;46330;50.822;7.126;2023-05-02T05:40:10;101476.16;;;10.40;100.00
9141;BME280;46330;50.822;7.126;2023-05-02T05:42:42;101488.38;;;10.43;100.00
9141;BME280;46330;50.822;7.126;2023-05-02T05:45:17;101487.53;;;10.39;100.00
9141;BME280;46330;50.822;7.126;2023-05-02T05:47:45;101494.50;;;10.36;100.00
9141;BME280;46330;50.822;7.126;2023-05-02T05:50:14;101493.63;;;10.35;100.00
9141;BME280;46330;50.822;7.126;2023-05-02T05:52:43;101500.59;;;10.35;100.00
9141;BME280;46330;50.822;7.126;2023-05-02T05:55:11;101498.88;;;10.32;100.00
9141;BME280;46330;50.822;7.126;2023-05-02T05:57:39;101500.66;;;10.27;100.00
9141;BME280;46330;50.822;7.126;2023-05-02T06:00:09;101508.50;;;10.30;100.00
9141;BME280;46330;50.822;7.126;2023-05-02T06:02:49;101514.56;;;10.27;100.00
9141;BME280;46330;50.822;7.126;2023-05-02T06:05:29;101516.34;;;10.30;100.00
9141;BME280;46330;50.822;7.126;2023-05-02T06:07:58;101515.50;;;10.23;100.00
9141;BME280;46330;50.822;7.126;2023-05-02T06:10:26;101513.72;;;10.29;100.00
9141;BME280;46330;50.822;7.126;2023-05-02T06:12:55;101522.41;;;10.31;100.00
9141;BME280;46330;50.822;7.126;2023-05-02T06:15:28;101523.28;;;10.31;100.00
9141;BME280;46330;50.822;7.126;2023-05-02T06:17:58;101522.41;;;10.27;100.00
9141;BME280;46330;50.822;7.126;2023-05-02T06:20:26;101525.03;;;10.32;100.00
9141;BME280;46330;50.822;7.126;2023-05-02T06:22:54;101525.91;;;10.28;100.00
9141;BME280;46330;50.822;7.126;2023-05-02T06:25:22;101530.25;;;10.35;100.00
9141;BME280;46330;50.822;7.126;2023-05-02T06:27:50;101533.72;;;10.42;100.00
9141;BME280;46330;50.822;7.126;2023-05-02T06:30:18;101545.88;;;10.47;100.00
9141;BME280;46330;50.822;7.126;2023-05-02T06:32:46;101537.09;;;10.59;100.00
9141;BME280;46330;50.822;7.126;2023-05-02T06:35:15;101542.28;;;10.68;100.00
9141;BME280;46330;50.822;7.126;2023-05-02T06:37:43;101547.53;;;10.69;100.00
9141;BME280;46330;50.822;7.126;2023-05-02T06:40:12;101553.63;;;10.68;100.00
9141;BME280;46330;50.822;7.126;2023-05-02T06:42:40;101552.75;;;10.69;100.00
9141;BME280;46330;50.822;7.126;2023-05-02T06:45:08;101562.31;;;10.75;100.00
9141;BME280;46330;50.822;7.126;2023-05-02T06:47:36;101568.41;;;10.82;100.00
9141;BME280;46330;50.822;7.126;2023-05-02T06:50:05;101567.50;;;10.84;100.00
9141;BME280;46330;50.822;7.126;2023-05-02T06:52:34;101565.59;;;11.09;100.00
9141;BME280;46330;50.822;7.126;2023-05-02T06:55:02;101572.56;;;11.14;100.00
9141;BME280;46330;50.822;7.126;2023-05-02T06:57:31;101579.41;;;11.32;100.00
9141;BME280;46330;50.822;7.126;2023-05-02T06:59:58;101579.53;;;11.17;100.00
9141;BME280;46330;50.822;7.126;2023-05-02T07:02:27;101579.59;;;11.03;100.00
9141;BME280;46330;50.822;7.126;2023-05-02T07:04:55;101586.59;;;11.00;100.00
9141;BME280;46330;50.822;7.126;2023-05-02T07:07:23;101593.59;;;11.01;100.00
9141;BME280;46330;50.822;7.126;2023-05-02T07:09:52;101595.41;;;10.88;100.00
9141;BME280;46330;50.822;7.126;2023-05-02T07:12:20;101594.56;;;10.83;100.00
9141;BME280;46330;50.822;7.126;2023-05-02T07:14:48;101593.72;;;10.76;100.00
9141;BME280;46330;50.822;7.126;2023-05-02T07:17:16;101603.28;;;10.80;100.00
9141;BME280;46330;50.822;7.126;2023-05-02T07:19:44;101599.00;;;10.66;100.00
9141;BME280;46330;50.822;7.126;2023-05-02T07:22:11;101601.59;;;10.73;100.00
9141;BME280;46330;50.822;7.126;2023-05-02T07:24:40;101619.03;;;10.71;100.00
9141;BME280;46330;50.822;7.126;2023-05-02T07:27:10;101626.06;;;10.56;100.00
9141;BME280;46330;50.822;7.126;2023-05-02T07:29:38;101622.63;;;10.52;100.00
9141;BME280;46330;50.822;7.126;2023-05-02T07:32:07;101627.81;;;10.60;100.00
9141;BME280;46330;50.822;7.126;2023-05-02T07:34:35;101626.94;;;10.58;100.00
9141;BME280;46330;50.822;7.126;2023-05-02T07:37:03;101618.16;;;10.75;100.00
9141;BME280;46330;50.822;7.126;2023-05-02T07:39:32;101628.56;;;10.88;100.00
9141;BME280;46330;50.822;7.126;2023-05-02T07:42:00;101627.72;;;10.78;100.00
9141;BME280;46330;50.822;7.126;2023-05-02T07:44:31;101638.19;;;10.83;100.00
9141;BME280;46330;50.822;7.126;2023-05-02T07:47:00;101631.13;;;11.01;100.00
9141;BME280;46330;50.822;7.126;2023-05-02T07:49:28;101633.78;;;10.88;100.00
9141;BME280;46330;50.822;7.126;2023-05-02T07:51:56;101632.00;;;10.97;100.00
9141;BME280;46330;50.822;7.126;2023-05-02T07:54:24;101634.59;;;11.05;100.00
9141;BME280;46330;50.822;7.126;2023-05-02T07:56:53;101643.25;;;11.17;100.00
9141;BME280;46330;50.822;7.126;2023-05-02T07:59:23;101638.06;;;11.05;100.00
9141;BME280;46330;50.822;7.126;2023-05-02T08:01:52;101635.44;;;11.11;100.00
9141;BME280;46330;50.822;7.126;2023-05-02T08:04:20;101638.91;;;11.12;100.00
9141;BME280;46330;50.822;7.126;2023-05-02T08:06:48;101640.66;;;11.11;100.00
9141;BME280;46330;50.822;7.126;2023-05-02T08:09:16;101644.06;;;11.27;100.00
9141;BME280;46330;50.822;7.126;2023-05-02T08:11:44;101649.13;;;11.53;100.00
9141;BME280;46330;50.822;7.126;2023-05-02T08:14:12;101663.03;;;11.70;100.00
9141;BME280;46330;50.822;7.126;2023-05-02T08:16:40;101659.50;;;11.66;100.00
9141;BME280;46330;50.822;7.126;2023-05-02T08:19:13;101657.09;;;11.39;99.91
9141;BME280;46330;50.822;7.126;2023-05-02T08:21:41;101672.84;;;11.28;99.14
9141;BME280;46330;50.822;7.126;2023-05-02T08:24:09;101670.25;;;11.25;96.80
9141;BME280;46330;50.822;7.126;2023-05-02T08:26:37;101673.59;;;11.50;97.89
9141;BME280;46330;50.822;7.126;2023-05-02T08:29:05;101681.50;;;11.40;94.79
9141;BME280;46330;50.822;7.126;2023-05-02T08:31:33;101683.28;;;11.39;94.29
9141;BME280;46330;50.822;7.126;2023-05-02T08:34:01;101688.34;;;11.65;92.27
9141;BME280;46330;50.822;7.126;2023-05-02T08:36:30;101695.38;;;11.55;92.15
9141;BME280;46330;50.822;7.126;2023-05-02T08:38:58;101692.00;;;11.38;93.34
9141;BME280;46330;50.822;7.126;2023-05-02T08:41:28;101688.47;;;11.47;92.47
9141;BME280;46330;50.822;7.126;2023-05-02T08:43:56;101692.03;;;11.30;92.82
9141;BME280;46330;50.822;7.126;2023-05-02T08:46:24;101695.47;;;11.40;92.82
9141;BME280;46330;50.822;7.126;2023-05-02T08:48:53;101695.44;;;11.48;93.51
9141;BME280;46330;50.822;7.126;2023-05-02T08:51:24;101705.06;;;11.43;93.59
9141;BME280;46330;50.822;7.126;2023-05-02T08:53:57;101707.69;;;11.49;91.75
9141;BME280;46330;50.822;7.126;2023-05-02T08:56:25;101705.78;;;11.76;91.76
9141;BME280;46330;50.822;7.126;2023-05-02T08:58:53;101698.53;;;12.10;90.53
9141;BME280;46330;50.822;7.126;2023-05-02T09:01:22;101714.88;;;12.38;88.45
9141;BME280;46330;50.822;7.126;2023-05-02T09:03:50;101717.16;;;12.71;88.24
9141;BME280;46330;50.822;7.126;2023-05-02T09:06:20;101712.53;;;12.93;85.45
9141;BME280;46330;50.822;7.126;2023-05-02T09:08:50;101715.28;;;12.84;85.29
9141;BME280;46330;50.822;7.126;2023-05-02T09:11:20;101718.06;;;12.67;84.08
9141;BME280;46330;50.822;7.126;2023-05-02T09:13:49;101724.25;;;12.63;85.29
9141;BME280;46330;50.822;7.126;2023-05-02T09:16:19;101729.66;;;12.48;86.62
9141;BME280;46330;50.822;7.126;2023-05-02T09:18:49;101729.63;;;12.50;84.56
9141;BME280;46330;50.822;7.126;2023-05-02T09:21:18;101738.47;;;12.39;86.39
9141;BME280;46330;50.822;7.126;2023-05-02T09:23:48;101736.91;;;12.17;86.36
9141;BME280;46330;50.822;7.126;2023-05-02T09:26:17;101739.59;;;12.10;87.79
9141;BME280;46330;50.822;7.126;2023-05-02T09:28:48;101743.25;;;11.92;87.08
9141;BME280;46330;50.822;7.126;2023-05-02T09:31:17;101749.47;;;11.74;86.52
9141;BME280;46330;50.822;7.126;2023-05-02T09:34:07;101745.97;;;11.69;86.42
9141;BME280;46330;50.822;7.126;2023-05-02T09:36:38;101745.13;;;11.61;86.53
9141;BME280;46330;50.822;7.126;2023-05-02T09:39:08;101753.91;;;11.57;86.76
9141;BME280;46330;50.822;7.126;2023-05-02T09:41:40;101753.88;;;11.62;86.99
9141;BME280;46330;50.822;7.126;2023-05-02T09:44:11;101753.91;;;11.57;86.70
9141;BME280;46330;50.822;7.126;2023-05-02T09:46:40;101751.31;;;11.54;86.25
9141;BME280;46330;50.822;7.126;2023-05-02T09:49:08;101752.09;;;11.76;85.61
9141;BME280;46330;50.822;7.126;2023-05-02T09:51:36;101759.03;;;11.80;85.95
9141;BME280;46330;50.822;7.126;2023-05-02T09:54:04;101767.72;;;11.86;84.51
9141;BME280;46330;50.822;7.126;2023-05-02T09:56:50;101772.97;;;11.86;85.20
9141;BME280;46330;50.822;7.126;2023-05-02T09:59:20;101775.69;;;11.71;83.69
9141;BME280;46330;50.822;7.126;2023-05-02T10:01:54;101782.75;;;11.57;84.57
9141;BME280;46330;50.822;7.126;2023-05-02T10:04:23;101789.72;;;11.57;83.46
9141;BME280;46330;50.822;7.126;2023-05-02T10:06:53;101786.13;;;11.82;81.37
9141;BME280;46330;50.822;7.126;2023-05-02T10:09:22;101790.53;;;11.66;82.85
9141;BME280;46330;50.822;7.126;2023-05-02T10:11:51;101794.03;;;11.68;79.63
9141;BME280;46330;50.822;7.126;2023-05-02T10:14:22;101799.09;;;11.99;80.79
9141;BME280;46330;50.822;7.126;2023-05-02T10:16:59;101803.34;;;12.22;79.39
9141;BME280;46330;50.822;7.126;2023-05-02T10:19:29;101798.88;;;12.30;78.60
9141;BME280;46330;50.822;7.126;2023-05-02T10:22:00;101803.44;;;12.10;77.94
9141;BME280;46330;50.822;7.126;2023-05-02T10:24:30;101813.06;;;12.02;79.17
9141;BME280;46330;50.822;7.126;2023-05-02T10:26:59;101814.78;;;12.14;78.69
9141;BME280;46330;50.822;7.126;2023-05-02T10:29:30;101812.03;;;12.29;78.92
9141;BME280;46330;50.822;7.126;2023-05-02T10:31:59;101822.50;;;12.32;78.96
9141;BME280;46330;50.822;7.126;2023-05-02T10:34:31;101816.31;;;12.40;77.85
9141;BME280;46330;50.822;7.126;2023-05-02T10:36:59;101816.72;;;12.89;75.78
9141;BME280;46330;50.822;7.126;2023-05-02T10:39:28;101816.63;;;13.00;75.53
9141;BME280;46330;50.822;7.126;2023-05-02T10:41:58;101808.44;;;13.30;74.64
9141;BME280;46330;50.822;7.126;2023-05-02T10:44:33;101819.69;;;13.43;73.75
9141;BME280;46330;50.822;7.126;2023-05-02T10:47:17;101808.81;;;13.72;70.32
9141;BME280;46330;50.822;7.126;2023-05-02T10:49:49;101815.09;;;13.60;71.54
9141;BME280;46330;50.822;7.126;2023-05-02T10:52:24;101817.19;;;13.31;70.79
9141;BME280;46330;50.822;7.126;2023-05-02T10:55:12;101818.19;;;13.21;69.42
9141;BME280;46330;50.822;7.126;2023-05-02T11:00:42;101813.84;;;13.20;68.24
9141;BME280;46330;50.822;7.126;2023-05-02T11:03:11;101813.69;;;13.32;67.77
9141;BME280;46330;50.822;7.126;2023-05-02T11:06:03;101812.66;;;13.43;68.05
9141;BME280;46330;50.822;7.126;2023-05-02T11:08:31;101806.94;;;13.80;65.66
9141;BME280;46330;50.822;7.126;2023-05-02T11:14:00;101807.81;;;14.41;62.98
9141;BME280;46330;50.822;7.126;2023-05-02T11:17:09;101811.38;;;14.37;63.65
9141;BME280;46330;50.822;7.126;2023-05-02T11:22:58;101805.28;;;14.84;62.46
9141;BME280;46330;50.822;7.126;2023-05-02T11:25:48;101808.16;;;14.72;60.17
9141;BME280;46330;50.822;7.126;2023-05-02T11:28:45;101812.34;;;14.82;60.56
9141;BME280;46330;50.822;7.126;2023-05-02T11:34:17;101807.44;;;14.63;60.97
9141;BME280;46330;50.822;7.126;2023-05-02T11:36:45;101814.63;;;15.02;61.34
9141;BME280;46330;50.822;7.126;2023-05-02T11:39:18;101817.16;;;14.59;62.28
9141;BME280;46330;50.822;7.126;2023-05-02T11:41:46;101818.19;;;14.50;63.14
9141;BME280;46330;50.822;7.126;2023-05-02T11:44:16;101815.81;;;14.31;64.24
9141;BME280;46330;50.822;7.126;2023-05-02T11:46:44;101814.38;;;14.12;65.45
9141;BME280;46330;50.822;7.126;2023-05-02T11:49:12;101820.78;;;13.94;65.64
9141;BME280;46330;50.822;7.126;2023-05-02T11:51:42;101822.78;;;14.38;62.36
9141;BME280;46330;50.822;7.126;2023-05-02T11:54:17;101823.69;;;14.34;63.46
9141;BME280;46330;50.822;7.126;2023-05-02T11:56:46;101813.06;;;14.41;65.36
9141;BME280;46330;50.822;7.126;2023-05-02T11:59:14;101829.44;;;15.07;61.58
9141;BME280;46330;50.822;7.126;2023-05-02T12:01:46;101820.50;;;15.60;57.05
9141;BME280;46330;50.822;7.126;2023-05-02T12:04:14;101818.19;;;15.44;56.35
9141;BME280;46330;50.822;7.126;2023-05-02T12:06:55;101825.81;;;15.13;56.52
9141;BME280;46330;50.822;7.126;2023-05-02T12:09:23;101829.94;;;15.26;55.88
9141;BME280;46330;50.822;7.126;2023-05-02T12:11:51;101826.28;;;14.89;55.40
9141;BME280;46330;50.822;7.126;2023-05-02T12:14:27;101824.19;;;15.53;56.61
9141;BME280;46330;50.822;7.126;2023-05-02T12:16:56;101837.94;;;15.68;53.43
9141;BME280;46330;50.822;7.126;2023-05-02T12:19:25;101826.28;;;15.78;53.81
9141;BME280;46330;50.822;7.126;2023-05-02T12:21:55;101837.78;;;15.31;54.53
9141;BME280;46330;50.822;7.126;2023-05-02T12:24:23;101835.97;;;14.87;56.69
9141;BME280;46330;50.822;7.126;2023-05-02T12:27:12;101839.97;;;15.07;57.84
9141;BME280;46330;50.822;7.126;2023-05-02T12:29:41;101844.59;;;14.96;57.60
9141;BME280;46330;50.822;7.126;2023-05-02T12:32:09;101842.28;;;14.78;58.57
9141;BME280;46330;50.822;7.126;2023-05-02T12:34:38;101846.28;;;15.00;57.51
9141;BME280;46330;50.822;7.126;2023-05-02T12:37:08;101848.09;;;14.95;57.33
9141;BME280;46330;50.822;7.126;2023-05-02T12:39:38;101844.91;;;15.26;57.50
9141;BME280;46330;50.822;7.126;2023-05-02T12:42:10;101851.34;;;15.57;56.98
9141;BME280;46330;50.822;7.126;2023-05-02T12:44:40;101850.38;;;15.61;56.44
9141;BME280;46330;50.822;7.126;2023-05-02T12:47:09;101857.50;;;15.10;55.03
9141;BME280;46330;50.822;7.126;2023-05-02T12:49:50;101856.66;;;15.10;56.52
9141;BME280;46330;50.822;7.126;2023-05-02T12:52:20;101864.41;;;15.17;55.82
9141;BME280;46330;50.822;7.126;2023-05-02T12:54:48;101862.03;;;15.02;54.27
9141;BME280;46330;50.822;7.126;2023-05-02T12:57:21;101859.50;;;14.97;55.09
9141;BME280;46330;50.822;7.126;2023-05-02T12:59:51;101872.94;;;15.31;53.57
9141;BME280;46330;50.822;7.126;2023-05-02T13:02:20;101871.00;;;15.41;52.93
9141;BME280;46330;50.822;7.126;2023-05-02T13:04:48;101867.34;;;15.49;53.13
9141;BME280;46330;50.822;7.126;2023-05-02T13:07:16;101877.28;;;15.34;54.16
9141;BME280;46330;50.822;7.126;2023-05-02T13:09:45;101871.03;;;14.90;53.85
9141;BME280;46330;50.822;7.126;2023-05-02T13:12:13;101873.28;;;14.61;55.51
9141;BME280;46330;50.822;7.126;2023-05-02T13:14:41;101862.44;;;14.79;55.74
9141;BME280;46330;50.822;7.126;2023-05-02T13:17:09;101876.84;;;14.60;56.36
9141;BME280;46330;50.822;7.126;2023-05-02T13:19:37;101879.16;;;14.19;55.28
9141;BME280;46330;50.822;7.126;2023-05-02T13:22:13;101878.22;;;14.24;58.26
9141;BME280;46330;50.822;7.126;2023-05-02T13:24:41;101869.78;;;13.98;57.17
9141;BME280;46330;50.822;7.126;2023-05-02T13:27:12;101868.31;;;13.79;56.54